Time;durP1;ratioP1;P1;durP2;ratioP2;P2;SDS_P1;SDS_P2;PMS_P1;PMS_P2;Temp;Humidity;BMP_temperature;BMP_pressure;BME280_temperature;BME280_humidity;BME280_pressure;Samples;Min_cycle;Max_cycle;Signal;HPM_P1;HPM_P2
2022/11/26 00:00:13;;;;;;;76.22;31.95;;;;;;;5.24;100.00;99019.38;2606981;28;20525;-91
2022/11/26 00:01:34;;;;;;;63.67;28.45;;;;;;;5.39;100.00;99015.09;2607470;28;20476;-90
2022/11/26 00:02:49;;;;;;;57.17;24.88;;;;;;;5.49;100.00;99015.09;2607227;28;20049;-90
2022/11/26 00:04:05;;;;;;;48.17;23.52;;;;;;;5.46;100.00;99029.78;2607607;28;20462;-90
2022/11/26 00:05:22;;;;;;;52.05;23.50;;;;;;;5.50;100.00;99027.22;2607294;28;20396;-91
2022/11/26 00:06:43;;;;;;;49.60;22.05;;;;;;;5.41;100.00;99028.94;2607477;28;20550;-91
2022/11/26 00:07:59;;;;;;;42.33;20.63;;;;;;;5.35;100.00;99025.44;2607140;28;20060;-89
2022/11/26 00:09:20;;;;;;;42.85;20.40;;;;;;;5.13;100.00;99032.28;2607508;28;20091;-91
2022/11/26 00:10:36;;;;;;;42.00;19.90;;;;;;;5.29;100.00;99033.22;2607310;28;20134;-90
2022/11/26 00:11:51;;;;;;;39.78;20.35;;;;;;;5.26;100.00;99033.22;2606581;28;20053;-91
2022/11/26 00:13:16;;;;;;;41.70;19.25;;;;;;;5.17;100.00;99031.47;2606672;28;20087;-90
2022/11/26 00:14:33;;;;;;;39.85;18.08;;;;;;;5.20;100.00;99031.47;2607083;28;20048;-92
2022/11/26 00:15:49;;;;;;;39.20;19.85;;;;;;;5.15;100.00;99030.56;2606415;28;20048;-92
2022/11/26 00:17:04;;;;;;;39.72;19.27;;;;;;;5.37;100.00;99028.91;2600277;28;20594;-90
2022/11/26 00:18:22;;;;;;;38.15;18.08;;;;;;;5.44;100.00;99027.19;2609773;28;20102;-92
2022/11/26 00:19:39;;;;;;;41.05;19.08;;;;;;;5.48;100.00;99022.88;2612791;28;20057;-91
2022/11/26 00:20:59;;;;;;;37.35;17.70;;;;;;;5.50;100.00;99032.41;2606308;28;20089;-90
2022/11/26 00:22:29;;;;;;;33.28;17.42;;;;;;;5.43;100.00;99029.78;2606728;28;20053;-90
2022/11/26 00:23:44;;;;;;;33.17;16.98;;;;;;;5.16;100.00;99037.50;2606700;28;20053;-91
2022/11/26 00:25:00;;;;;;;36.55;17.33;;;;;;;5.07;100.00;99038.31;2606267;28;20092;-91
2022/11/26 00:26:19;;;;;;;35.45;16.25;;;;;;;4.95;100.00;99038.28;2606791;28;20048;-90
2022/11/26 00:27:35;;;;;;;37.13;16.70;;;;;;;5.12;100.00;99040.09;2606949;28;20076;-91
2022/11/26 00:28:56;;;;;;;35.17;16.52;;;;;;;5.27;100.00;99032.34;2607083;28;20048;-91
2022/11/26 00:30:24;;;;;;;34.00;16.15;;;;;;;5.40;100.00;99040.19;2607304;28;20499;-90
2022/11/26 00:31:39;;;;;;;32.83;15.48;;;;;;;5.10;100.00;99042.66;2606928;28;20461;-91
2022/11/26 00:32:55;;;;;;;32.47;16.05;;;;;;;4.68;100.00;99042.50;2606858;28;20060;-91
2022/11/26 00:34:10;;;;;;;33.80;15.40;;;;;;;4.85;100.00;99047.75;2607077;28;20056;-93
2022/11/26 00:35:26;;;;;;;34.05;15.50;;;;;;;4.84;100.00;99048.59;2607215;28;20045;-90
2022/11/26 00:36:43;;;;;;;28.85;14.55;;;;;;;4.59;100.00;99048.47;2606091;28;20480;-92
2022/11/26 00:37:58;;;;;;;36.95;15.50;;;;;;;4.72;100.00;99049.44;2606204;28;20049;-91
2022/11/26 00:39:23;;;;;;;33.33;15.88;;;;;;;4.85;100.00;99044.31;2606825;28;20049;-92
2022/11/26 00:40:39;;;;;;;36.45;14.45;;;;;;;5.03;100.00;99054.75;2606115;28;21116;-90
2022/11/26 00:41:55;;;;;;;37.40;15.25;;;;;;;5.17;100.00;99041.84;2606594;28;20057;-91
2022/11/26 00:43:12;;;;;;;38.53;15.63;;;;;;;5.24;100.00;99045.34;2611156;28;20411;-91
2022/11/26 00:44:28;;;;;;;34.88;14.45;;;;;;;5.40;100.00;99045.38;2609991;28;20076;-91
2022/11/26 00:45:44;;;;;;;33.53;14.55;;;;;;;5.41;100.00;99052.31;2607025;28;20071;-90
2022/11/26 00:46:59;;;;;;;33.75;14.65;;;;;;;5.43;100.00;99050.56;2607006;28;20053;-90
2022/11/26 00:48:18;;;;;;;31.38;14.30;;;;;;;5.20;100.00;99053.94;2606904;28;20049;-91
2022/11/26 00:49:33;;;;;;;34.05;15.50;;;;;;;5.12;100.00;99058.25;2607035;28;20123;-90
2022/11/26 00:50:50;;;;;;;35.00;15.40;;;;;;;5.18;100.00;99058.28;2606901;28;20049;-91
2022/11/26 00:52:27;;;;;;;31.35;14.27;;;;;;;5.39;100.00;99060.06;2605895;28;20162;-91
2022/11/26 00:53:43;;;;;;;30.80;14.55;;;;;;;5.52;100.00;99061.00;2606599;28;20056;-90
2022/11/26 00:55:05;;;;;;;35.05;14.60;;;;;;;5.29;100.00;99063.50;2606893;28;20049;-91
2022/11/26 00:56:22;;;;;;;33.92;14.65;;;;;;;5.25;100.00;99061.75;2606968;28;20099;-90
2022/11/26 00:57:37;;;;;;;36.35;16.30;;;;;;;5.17;100.00;99061.72;2606750;28;20061;-90
2022/11/26 00:58:53;;;;;;;50.85;22.48;;;;;;;5.20;100.00;99067.81;2606880;28;20573;-91
2022/11/26 01:00:22;;;;;;;32.47;16.08;;;;;;;5.33;100.00;99066.13;2606883;28;20045;-91
2022/11/26 01:01:38;;;;;;;48.30;21.33;;;;;;;5.45;100.00;99067.03;2606113;28;20099;-91
2022/11/26 01:02:54;;;;;;;57.92;23.73;;;;;;;5.35;100.00;99072.19;2606232;28;20048;-91
2022/11/26 01:04:09;;;;;;;66.55;27.55;;;;;;;5.16;100.00;99067.78;2606730;28;20052;-92
2022/11/26 01:05:32;;;;;;;56.38;25.65;;;;;;;5.35;100.00;99064.38;2606041;28;20526;-91
2022/11/26 01:06:48;;;;;;;62.85;26.02;;;;;;;5.43;100.00;99071.34;2606279;28;20072;-90
2022/11/26 01:08:29;;;;;;;59.38;25.77;;;;;;;5.37;100.00;99072.19;2605852;28;20510;-92
2022/11/26 01:09:46;;;;;;;51.60;24.02;;;;;;;4.75;100.00;99067.59;2589375;28;20057;-91
2022/11/26 01:11:04;;;;;;;58.00;24.42;;;;;;;4.64;100.00;99074.44;2600165;28;20159;-90
2022/11/26 01:12:19;;;;;;;51.63;25.67;;;;;;;4.86;100.00;99083.22;2605638;28;20127;-91
2022/11/26 01:13:35;;;;;;;56.78;25.77;;;;;;;5.01;100.00;99073.75;2606210;28;20111;-90
2022/11/26 01:14:51;;;;;;;48.97;23.95;;;;;;;4.83;100.00;99083.19;2605748;28;20462;-91
2022/11/26 01:16:21;;;;;;;50.65;23.50;;;;;;;4.83;100.00;99087.53;2599727;28;20650;-92
2022/11/26 01:17:37;;;;;;;52.05;22.08;;;;;;;4.73;100.00;99081.41;2606384;28;20516;-90
2022/11/26 01:18:55;;;;;;;48.00;21.42;;;;;;;4.66;100.00;99076.19;2606665;28;20135;-91
2022/11/26 01:20:28;;;;;;;49.47;20.73;;;;;;;4.74;100.00;99078.84;2616067;28;20048;-91
2022/11/26 01:21:44;;;;;;;43.90;19.30;;;;;;;4.88;100.00;99084.06;2609989;28;20132;-91
2022/11/26 01:23:00;;;;;;;45.28;19.20;;;;;;;5.14;100.00;99085.94;2606451;28;20045;-90
2022/11/26 01:24:15;;;;;;;39.75;18.58;;;;;;;5.32;100.00;99084.31;2606558;28;20048;-92
2022/11/26 01:25:31;;;;;;;37.95;16.80;;;;;;;5.16;100.00;99081.63;2606574;28;20454;-93
2022/11/26 01:26:46;;;;;;;38.78;16.38;;;;;;;5.13;100.00;99085.94;2604828;28;20055;-90
2022/11/26 01:28:02;;;;;;;36.80;16.13;;;;;;;5.28;100.00;99079.94;2605690;28;20112;-93
2022/11/26 01:29:18;;;;;;;35.08;15.77;;;;;;;5.39;100.00;99080.84;2606467;28;20489;-93
2022/11/26 01:30:34;;;;;;;37.58;17.98;;;;;;;5.41;100.00;99080.88;2605648;28;20527;-93
2022/11/26 01:31:50;;;;;;;47.10;17.80;;;;;;;5.48;100.00;99082.59;2606053;28;20333;-94
2022/11/26 01:33:06;;;;;;;41.15;17.25;;;;;;;5.42;100.00;99080.84;2606419;28;20048;-92
2022/11/26 01:34:21;;;;;;;37.47;16.05;;;;;;;5.12;100.00;99085.06;2606661;28;20064;-93
2022/11/26 01:35:37;;;;;;;49.25;17.42;;;;;;;5.23;100.00;99086.00;2606548;28;20044;-93
2022/11/26 01:36:53;;;;;;;50.72;17.98;;;;;;;5.31;100.00;99082.56;2606601;28;20051;-94
2022/11/26 01:38:13;;;;;;;53.28;18.85;;;;;;;5.40;100.00;99081.72;2606065;28;20148;-96
2022/11/26 01:39:28;;;;;;;52.72;18.15;;;;;;;5.38;100.00;99084.31;2606597;28;20507;-91
2022/11/26 01:40:53;;;;;;;45.60;16.52;;;;;;;5.25;100.00;99087.72;2606469;28;20053;-91
2022/11/26 01:42:36;;;;;;;47.30;16.52;;;;;;;5.14;100.00;99085.94;2606502;28;20132;-91
2022/11/26 01:43:55;;;;;;;39.63;16.50;;;;;;;5.31;100.00;99088.63;2606342;28;20045;-90
2022/11/26 01:45:16;;;;;;;35.90;15.13;;;;;;;5.03;100.00;99088.50;2606544;28;20135;-91
2022/11/26 01:46:35;;;;;;;32.38;13.50;;;;;;;4.79;100.00;99091.84;2616095;28;21277;-92
2022/11/26 01:47:50;;;;;;;33.42;13.60;;;;;;;4.94;100.00;99102.28;2605486;28;20371;-90
2022/11/26 01:49:29;;;;;;;32.20;14.82;;;;;;;4.96;100.00;99110.09;2609715;28;20063;-90
2022/11/26 01:51:05;;;;;;;30.50;14.25;;;;;;;5.37;100.00;99106.81;2607894;28;20079;-92
2022/11/26 01:52:24;;;;;;;29.30;13.52;;;;;;;5.49;100.00;99106.00;2615986;28;20087;-92
2022/11/26 01:53:45;;;;;;;30.75;13.20;;;;;;;5.66;100.00;99107.78;2605607;28;20057;-90
2022/11/26 01:55:01;;;;;;;25.30;12.90;;;;;;;5.72;100.00;99106.94;2606016;28;20068;-92
2022/11/26 01:56:26;;;;;;;26.27;12.50;;;;;;;5.75;100.00;99112.13;2606424;28;20060;-90
2022/11/26 01:57:43;;;;;;;24.33;11.30;;;;;;;5.76;100.00;99114.72;2606661;28;20049;-91
2022/11/26 01:59:01;;;;;;;23.10;11.52;;;;;;;5.71;100.00;99119.03;2606285;28;20088;-91
2022/11/26 02:00:17;;;;;;;22.73;10.80;;;;;;;5.69;100.00;99114.72;2606292;28;20073;-92
2022/11/26 02:01:33;;;;;;;20.60;10.20;;;;;;;5.66;100.00;99118.16;2606554;28;20045;-91
2022/11/26 02:02:49;;;;;;;18.90;10.10;;;;;;;5.61;100.00;99114.69;2606330;28;20428;-91
2022/11/26 02:04:11;;;;;;;22.48;10.15;;;;;;;5.51;100.00;99122.44;2606198;28;20910;-90
2022/11/26 02:05:33;;;;;;;19.38;9.93;;;;;;;5.36;100.00;99127.59;2609879;28;20084;-92
2022/11/26 02:06:50;;;;;;;20.83;11.02;;;;;;;5.38;100.00;99125.84;2608200;28;20103;-89
2022/11/26 02:08:06;;;;;;;20.23;9.45;;;;;;;5.41;100.00;99125.88;2605675;28;20462;-91
2022/11/26 02:09:23;;;;;;;17.05;9.57;;;;;;;4.93;100.00;99125.63;2605889;28;20045;-92
2022/11/26 02:10:39;;;;;;;18.17;10.07;;;;;;;4.83;100.00;99132.50;2606227;28;20055;-92
2022/11/26 02:11:55;;;;;;;20.15;10.02;;;;;;;4.84;100.00;99123.84;2606515;28;20148;-95
2022/11/26 02:13:11;;;;;;;20.90;10.40;;;;;;;4.58;100.00;99121.94;2606381;28;20061;-94
2022/11/26 02:14:34;;;;;;;20.52;10.43;;;;;;;4.45;100.00;99131.38;2606531;28;20096;-90
2022/11/26 02:16:07;;;;;;;19.77;9.80;;;;;;;4.37;100.00;99122.66;2605510;28;20076;-91
2022/11/26 02:17:27;;;;;;;20.65;10.25;;;;;;;4.29;100.00;99130.38;2611794;28;20044;-94
2022/11/26 02:19:00;;;;;;;23.77;10.65;;;;;;;4.27;100.00;99137.25;2611401;28;20056;-94
2022/11/26 02:20:41;;;;;;;22.02;11.18;;;;;;;4.29;100.00;99138.13;2611262;28;21073;-92
2022/11/26 02:22:37;;;;;;;26.75;10.82;;;;;;;4.05;100.00;99137.09;2607716;28;20053;-92
2022/11/26 02:24:19;;;;;;;20.88;10.07;;;;;;;3.98;100.00;99135.28;2592960;28;20163;-88
2022/11/26 02:26:06;;;;;;;22.60;10.35;;;;;;;4.09;100.00;99138.84;2605308;28;20051;-90
2022/11/26 02:27:36;;;;;;;21.42;9.85;;;;;;;4.10;100.00;99137.97;2606075;28;20156;-89
2022/11/26 02:29:12;;;;;;;24.63;11.00;;;;;;;4.52;100.00;99137.47;2606264;28;20739;-91
2022/11/26 02:30:32;;;;;;;23.60;10.70;;;;;;;4.36;100.00;99139.06;2611245;28;20048;-90
2022/11/26 02:31:56;;;;;;;22.27;10.77;;;;;;;4.23;100.00;99141.53;2605214;28;20053;-90
2022/11/26 02:33:22;;;;;;;23.63;10.43;;;;;;;4.30;100.00;99134.69;2605824;28;20126;-94
2022/11/26 02:34:47;;;;;;;20.75;10.25;;;;;;;4.27;100.00;99141.59;2605471;28;20777;-90
2022/11/26 02:36:22;;;;;;;22.80;10.75;;;;;;;4.45;100.00;99144.34;2605796;28;20072;-93
2022/11/26 02:37:46;;;;;;;22.95;11.32;;;;;;;4.48;100.00;99140.91;2606285;28;20073;-93
2022/11/26 02:39:31;;;;;;;26.25;12.10;;;;;;;4.60;100.00;99138.38;2607626;28;20805;-90
2022/11/26 02:40:46;;;;;;;25.67;11.98;;;;;;;4.58;100.00;99142.69;2601307;28;20501;-94
2022/11/26 02:42:18;;;;;;;23.00;11.43;;;;;;;4.58;100.00;99145.28;2608317;28;20049;-94
2022/11/26 02:43:35;;;;;;;23.25;11.60;;;;;;;4.43;100.00;99152.94;2608255;28;20150;-91
2022/11/26 02:44:53;;;;;;;28.00;10.75;;;;;;;4.42;100.00;99159.00;2607611;28;20477;-92
2022/11/26 02:46:16;;;;;;;20.65;10.65;;;;;;;4.41;100.00;99160.72;2601623;28;20828;-93
2022/11/26 02:47:33;;;;;;;17.52;9.60;;;;;;;4.29;100.00;99164.06;2607654;28;20148;-91
2022/11/26 02:48:51;;;;;;;26.30;10.25;;;;;;;4.14;100.00;99157.03;2608161;28;20056;-90
2022/11/26 02:50:25;;;;;;;19.08;9.23;;;;;;;4.13;100.00;99162.19;2608034;28;20045;-90
2022/11/26 02:51:41;;;;;;;17.70;9.18;;;;;;;4.22;100.00;99160.53;2608089;28;20480;-89
2022/11/26 02:52:58;;;;;;;14.95;8.35;;;;;;;4.23;100.00;99157.09;2607084;28;20131;-89
2022/11/26 02:54:14;;;;;;;15.57;8.05;;;;;;;4.27;100.00;99155.41;2611578;28;20092;-91
2022/11/26 02:55:34;;;;;;;14.15;7.70;;;;;;;4.12;100.00;99160.44;2613520;28;20053;-93
2022/11/26 02:56:51;;;;;;;15.70;8.48;;;;;;;4.16;100.00;99168.28;2607160;28;20079;-93
2022/11/26 02:58:06;;;;;;;15.68;8.45;;;;;;;4.09;100.00;99166.47;2606920;28;20057;-92
2022/11/26 02:59:22;;;;;;;15.85;7.40;;;;;;;4.09;100.00;99166.47;2607657;28;20103;-92
2022/11/26 03:00:41;;;;;;;18.10;7.43;;;;;;;3.99;100.00;99173.28;2611114;28;20049;-93
2022/11/26 03:02:02;;;;;;;13.00;7.10;;;;;;;3.94;100.00;99168.03;2607313;28;20443;-89
2022/11/26 03:03:25;;;;;;;14.18;7.05;;;;;;;3.81;100.00;99174.81;2607430;28;20048;-90
2022/11/26 03:04:46;;;;;;;11.40;6.43;;;;;;;3.63;100.00;99170.28;2608087;28;20108;-90
2022/11/26 03:06:07;;;;;;;14.07;8.25;;;;;;;3.62;100.00;99173.75;2607875;28;20084;-90
2022/11/26 03:07:23;;;;;;;17.20;7.35;;;;;;;3.72;100.00;99177.28;2607127;28;20048;-90
2022/11/26 03:08:39;;;;;;;15.40;8.07;;;;;;;3.30;100.00;99171.63;2607230;28;20049;-91
2022/11/26 03:09:58;;;;;;;23.05;9.75;;;;;;;3.39;100.00;99176.03;2607694;28;20652;-90
2022/11/26 03:11:14;;;;;;;18.80;9.48;;;;;;;3.17;100.00;99182.66;2607905;28;20049;-89
2022/11/26 03:12:29;;;;;;;16.98;8.88;;;;;;;3.22;100.00;99186.16;2607685;28;20098;-90
2022/11/26 03:13:46;;;;;;;18.27;9.30;;;;;;;3.44;100.00;99181.28;2607660;28;20049;-91
2022/11/26 03:15:01;;;;;;;24.48;10.35;;;;;;;3.58;100.00;99179.75;2607533;28;20052;-90
2022/11/26 03:16:17;;;;;;;19.63;9.43;;;;;;;3.66;100.00;99179.81;2608000;28;20049;-93
2022/11/26 03:17:32;;;;;;;21.83;9.75;;;;;;;3.37;100.00;99177.75;2608007;28;20103;-91
2022/11/26 03:18:48;;;;;;;21.67;9.23;;;;;;;3.19;100.00;99179.22;2606804;28;20104;-90
2022/11/26 03:20:04;;;;;;;21.30;9.57;;;;;;;3.06;100.00;99187.66;2607425;28;20555;-89
2022/11/26 03:21:20;;;;;;;26.30;10.98;;;;;;;3.17;100.00;99187.81;2607730;28;20049;-92
2022/11/26 03:22:36;;;;;;;28.58;10.80;;;;;;;3.17;100.00;99191.28;2607991;28;20053;-90
2022/11/26 03:23:52;;;;;;;20.65;9.88;;;;;;;3.13;100.00;99196.38;2607428;28;20152;-90
2022/11/26 03:25:09;;;;;;;24.38;9.93;;;;;;;3.15;100.00;99200.72;2607585;28;20076;-89
2022/11/26 03:26:24;;;;;;;26.02;11.50;;;;;;;3.20;100.00;99199.06;2607774;28;20049;-93
2022/11/26 03:27:40;;;;;;;28.65;11.23;;;;;;;3.19;100.00;99202.50;2607670;28;20055;-91
2022/11/26 03:28:55;;;;;;;29.63;11.18;;;;;;;3.44;100.00;99202.84;2607727;28;20048;-91
2022/11/26 03:30:11;;;;;;;28.27;11.15;;;;;;;3.33;100.00;99209.59;2607490;28;20055;-90
2022/11/26 03:31:27;;;;;;;30.67;11.70;;;;;;;3.36;100.00;99191.53;2612102;28;20123;-92
2022/11/26 03:32:42;;;;;;;29.13;10.20;;;;;;;3.31;100.00;99208.72;2609720;28;20131;-89
2022/11/26 03:33:58;;;;;;;25.25;10.02;;;;;;;3.48;100.00;99201.19;2607824;28;20118;-91
2022/11/26 03:35:14;;;;;;;22.15;10.23;;;;;;;3.33;100.00;99205.31;2607752;28;20057;-88
2022/11/26 03:36:29;;;;;;;24.10;10.32;;;;;;;3.29;100.00;99210.41;2607961;28;20045;-92
2022/11/26 03:37:45;;;;;;;24.88;10.43;;;;;;;3.46;100.00;99214.09;2607081;28;20053;-91
2022/11/26 03:39:00;;;;;;;24.67;10.98;;;;;;;3.68;100.00;99214.38;2607195;28;20056;-90
2022/11/26 03:40:16;;;;;;;20.42;9.65;;;;;;;3.70;100.00;99211.78;2607528;28;20060;-91
2022/11/26 03:41:32;;;;;;;19.88;9.38;;;;;;;3.72;100.00;99210.13;2607429;28;20071;-92
2022/11/26 03:42:47;;;;;;;19.90;8.95;;;;;;;3.80;100.00;99209.34;2607402;28;20053;-91
2022/11/26 03:44:03;;;;;;;17.17;9.55;;;;;;;3.74;100.00;99209.25;2607824;28;20087;-90
2022/11/26 03:45:18;;;;;;;16.90;8.50;;;;;;;3.83;100.00;99205.06;2606665;28;20052;-90
2022/11/26 03:46:34;;;;;;;16.60;7.93;;;;;;;3.58;100.00;99213.41;2607265;28;20263;-91
2022/11/26 03:47:49;;;;;;;14.95;7.72;;;;;;;3.57;100.00;99213.38;2607429;28;20049;-89
2022/11/26 03:49:05;;;;;;;17.17;7.07;;;;;;;3.27;100.00;99223.31;2606985;28;20095;-90
2022/11/26 03:50:21;;;;;;;14.85;7.72;;;;;;;3.02;100.00;99212.63;2607508;28;20048;-90
2022/11/26 03:51:37;;;;;;;19.58;8.10;;;;;;;3.27;100.00;99222.47;2607432;28;20049;-92
2022/11/26 03:52:52;;;;;;;16.98;8.30;;;;;;;3.34;100.00;99225.16;2607304;28;20048;-92
2022/11/26 03:54:08;;;;;;;16.55;7.82;;;;;;;3.30;100.00;99218.22;2607402;28;20068;-91
2022/11/26 03:55:24;;;;;;;13.77;7.05;;;;;;;3.08;100.00;99223.06;2607533;28;20068;-92
2022/11/26 03:56:40;;;;;;;15.20;6.90;;;;;;;2.86;100.00;99223.56;2606546;28;20052;-92
2022/11/26 03:57:55;;;;;;;18.58;8.13;;;;;;;2.78;100.00;99215.69;2606838;28;20136;-89
2022/11/26 03:59:11;;;;;;;17.90;8.05;;;;;;;3.04;100.00;99221.28;2607143;28;20052;-91
2022/11/26 04:00:27;;;;;;;16.23;7.90;;;;;;;3.17;100.00;99224.06;2607491;28;20130;-92
2022/11/26 04:01:42;;;;;;;16.88;7.47;;;;;;;2.82;100.00;99231.28;2607348;28;20064;-92
2022/11/26 04:02:58;;;;;;;22.15;8.63;;;;;;;2.59;100.00;99236.06;2607134;28;20048;-91
2022/11/26 04:04:13;;;;;;;16.92;8.35;;;;;;;2.73;100.00;99238.03;2607309;28;20476;-91
2022/11/26 04:05:29;;;;;;;20.98;9.32;;;;;;;3.06;100.00;99229.94;2607336;28;20410;-92
2022/11/26 04:06:44;;;;;;;18.23;7.97;;;;;;;2.89;100.00;99226.22;2607394;28;20057;-92
2022/11/26 04:08:00;;;;;;;16.23;7.93;;;;;;;3.13;100.00;99228.31;2607244;28;20044;-92
2022/11/26 04:09:15;;;;;;;16.95;8.25;;;;;;;3.24;100.00;99229.34;2607170;28;20411;-92
2022/11/26 04:10:31;;;;;;;15.75;8.02;;;;;;;3.06;100.00;99223.88;2607197;28;20076;-92
2022/11/26 04:11:47;;;;;;;19.08;8.48;;;;;;;2.75;100.00;99234.63;2607377;28;20045;-92
2022/11/26 04:13:02;;;;;;;17.45;8.65;;;;;;;3.01;100.00;99236.78;2607212;28;20053;-90
2022/11/26 04:14:18;;;;;;;20.40;8.98;;;;;;;3.11;100.00;99235.19;2607373;28;20060;-92
2022/11/26 04:15:34;;;;;;;23.40;9.52;;;;;;;3.13;100.00;99233.47;2607456;28;20103;-92
2022/11/26 04:16:49;;;;;;;18.17;8.80;;;;;;;3.17;100.00;99231.81;2607487;28;20053;-92
2022/11/26 04:18:05;;;;;;;19.58;8.07;;;;;;;2.80;100.00;99243.31;2607090;28;20197;-93
2022/11/26 04:19:20;;;;;;;17.75;8.55;;;;;;;2.82;100.00;99244.22;2607013;28;20068;-91
2022/11/26 04:20:36;;;;;;;15.40;7.85;;;;;;;2.86;100.00;99241.66;2607402;28;20049;-92
2022/11/26 04:21:51;;;;;;;21.63;8.38;;;;;;;2.95;100.00;99245.28;2607373;28;20049;-92
2022/11/26 04:23:07;;;;;;;19.60;9.13;;;;;;;2.88;100.00;99251.19;2607158;28;20403;-91
2022/11/26 04:24:22;;;;;;;17.35;9.00;;;;;;;2.84;100.00;99249.41;2607323;28;20041;-92
2022/11/26 04:25:38;;;;;;;21.30;8.45;;;;;;;2.91;100.00;99250.41;2607229;28;20049;-92
2022/11/26 04:26:54;;;;;;;18.15;8.13;;;;;;;2.93;100.00;99248.69;2606211;28;20053;-91
2022/11/26 04:28:09;;;;;;;18.55;7.68;;;;;;;2.87;100.00;99257.22;2606636;28;20045;-94
2022/11/26 04:29:25;;;;;;;21.55;8.40;;;;;;;2.77;100.00;99255.31;2607072;28;20056;-92
2022/11/26 04:30:41;;;;;;;17.02;8.35;;;;;;;2.83;100.00;99256.28;2607251;28;20076;-91
2022/11/26 04:31:57;;;;;;;14.15;7.45;;;;;;;2.61;100.00;99259.38;2607163;28;20420;-92
2022/11/26 04:33:13;;;;;;;20.02;8.63;;;;;;;2.46;100.00;99262.56;2607062;28;20045;-93
2022/11/26 04:34:28;;;;;;;14.95;7.32;;;;;;;2.47;100.00;99264.28;2607261;28;20465;-91
2022/11/26 04:35:44;;;;;;;15.75;7.72;;;;;;;2.33;100.00;99259.75;2606943;28;20128;-92
2022/11/26 04:36:59;;;;;;;16.98;7.15;;;;;;;2.51;100.00;99266.06;2616401;28;20518;-92
2022/11/26 04:38:15;;;;;;;14.52;6.30;;;;;;;2.67;100.00;99268.13;2612977;28;20143;-92
2022/11/26 04:39:30;;;;;;;46.97;8.65;;;;;;;2.33;100.00;99267.50;2607239;28;20111;-93
2022/11/26 04:40:47;;;;;;;48.30;7.68;;;;;;;2.35;100.00;99270.13;2607246;28;20528;-90
2022/11/26 04:42:02;;;;;;;25.92;7.90;;;;;;;2.76;100.00;99277.75;2606882;28;20076;-93
2022/11/26 04:43:18;;;;;;;39.72;7.90;;;;;;;2.69;100.00;99273.28;2607007;28;20152;-92
2022/11/26 04:44:33;;;;;;;21.85;7.10;;;;;;;2.77;100.00;99274.31;2607150;28;20075;-92
2022/11/26 04:45:49;;;;;;;40.83;7.32;;;;;;;2.70;100.00;99276.75;2607055;28;20056;-89
2022/11/26 04:47:04;;;;;;;23.33;6.65;;;;;;;2.67;100.00;99280.16;2607367;28;20052;-91
2022/11/26 04:48:20;;;;;;;32.00;7.43;;;;;;;2.81;100.00;99281.25;2607124;28;20048;-93
2022/11/26 04:49:36;;;;;;;31.23;7.50;;;;;;;2.90;100.00;99279.69;2607174;28;20048;-92
2022/11/26 04:50:51;;;;;;;40.40;8.10;;;;;;;2.85;100.00;99286.47;2607077;28;20068;-93
2022/11/26 04:52:07;;;;;;;49.72;7.88;;;;;;;2.86;100.00;99278.75;2607074;28;21164;-90
2022/11/26 04:53:23;;;;;;;43.60;7.72;;;;;;;2.76;100.00;99276.84;2606607;28;20547;-93
2022/11/26 04:54:38;;;;;;;19.08;6.78;;;;;;;2.31;100.00;99286.41;2607062;28;20048;-94
2022/11/26 04:55:54;;;;;;;26.83;7.15;;;;;;;1.99;100.00;99284.94;2607246;28;20072;-92
2022/11/26 04:57:09;;;;;;;19.50;7.68;;;;;;;2.01;100.00;99296.16;2607274;28;20049;-93
2022/11/26 04:58:25;;;;;;;26.75;7.65;;;;;;;1.83;100.00;99296.66;2606585;28;20074;-90
2022/11/26 04:59:41;;;;;;;18.60;7.07;;;;;;;1.69;100.00;99298.94;2606977;28;20557;-91
2022/11/26 05:00:57;;;;;;;13.93;6.43;;;;;;;1.72;100.00;99299.00;2605952;28;20076;-91
2022/11/26 05:02:13;;;;;;;27.50;8.35;;;;;;;1.91;100.00;99297.69;2606794;28;20126;-92
2022/11/26 05:03:29;;;;;;;26.05;9.18;;;;;;;1.96;100.00;99296.06;2607129;28;20056;-91
2022/11/26 05:04:45;;;;;;;27.58;9.77;;;;;;;2.08;100.00;99297.16;2606887;28;20077;-91
2022/11/26 05:06:01;;;;;;;22.63;8.90;;;;;;;2.22;100.00;99300.00;2606897;28;20049;-91
2022/11/26 05:07:16;;;;;;;21.52;9.80;;;;;;;2.14;100.00;99299.84;2606952;28;20056;-91
2022/11/26 05:08:32;;;;;;;23.83;9.32;;;;;;;2.21;100.00;99300.84;2606746;28;20131;-93
2022/11/26 05:09:47;;;;;;;26.13;8.95;;;;;;;2.28;100.00;99305.31;2606977;28;20047;-92
2022/11/26 05:11:03;;;;;;;24.23;9.07;;;;;;;2.63;100.00;99310.25;2605813;28;20454;-92
2022/11/26 05:12:19;;;;;;;26.60;10.30;;;;;;;2.67;100.00;99306.91;2605919;28;20060;-90
2022/11/26 05:13:34;;;;;;;28.27;10.52;;;;;;;2.39;100.00;99310.69;2606557;28;20456;-89
2022/11/26 05:14:50;;;;;;;31.10;9.82;;;;;;;2.37;100.00;99310.63;2606917;28;20613;-90
2022/11/26 05:16:06;;;;;;;54.65;10.00;;;;;;;2.72;100.00;99314.72;2605856;28;20118;-89
2022/11/26 05:17:21;;;;;;;51.35;10.65;;;;;;;2.82;100.00;99321.78;2606145;28;20098;-89
2022/11/26 05:18:37;;;;;;;27.63;8.05;;;;;;;2.86;100.00;99314.09;2606597;28;20083;-93
2022/11/26 05:19:52;;;;;;;29.70;8.85;;;;;;;2.89;100.00;99315.00;2606638;28;20052;-91
2022/11/26 05:21:08;;;;;;;15.90;7.05;;;;;;;2.80;100.00;99320.06;2606921;28;20072;-93
2022/11/26 05:22:24;;;;;;;15.00;6.72;;;;;;;2.94;100.00;99312.50;2605511;28;20370;-91
2022/11/26 05:23:39;;;;;;;16.80;6.50;;;;;;;3.00;100.00;99317.78;2606049;28;20049;-94
2022/11/26 05:24:54;;;;;;;42.03;7.97;;;;;;;2.97;100.00;99320.31;2610278;28;20048;-89
2022/11/26 05:26:10;;;;;;;31.02;7.15;;;;;;;2.81;100.00;99314.03;2608549;28;20073;-88
2022/11/26 05:27:26;;;;;;;45.63;8.57;;;;;;;2.70;100.00;99320.72;2606517;28;20064;-89
2022/11/26 05:28:41;;;;;;;52.00;8.23;;;;;;;2.81;100.00;99314.03;2606590;28;20086;-93
2022/11/26 05:29:57;;;;;;;67.40;8.85;;;;;;;2.89;100.00;99317.59;2606724;28;20044;-90
2022/11/26 05:31:13;;;;;;;43.05;7.55;;;;;;;3.02;100.00;99321.28;2606559;28;20045;-88
2022/11/26 05:32:28;;;;;;;25.60;7.40;;;;;;;3.00;100.00;99322.94;2605514;28;20053;-89
2022/11/26 05:33:44;;;;;;;30.88;8.32;;;;;;;2.79;100.00;99331.22;2605715;28;20057;-93
2022/11/26 05:34:59;;;;;;;31.52;7.53;;;;;;;2.81;100.00;99333.00;2606436;28;20048;-92
2022/11/26 05:36:15;;;;;;;19.75;7.63;;;;;;;2.50;100.00;99336.72;2606134;28;20581;-94
2022/11/26 05:37:30;;;;;;;17.70;7.03;;;;;;;2.36;100.00;99339.91;2606530;28;20056;-91
2022/11/26 05:38:46;;;;;;;15.13;6.85;;;;;;;2.42;100.00;99340.88;2606300;28;20094;-91
2022/11/26 05:40:02;;;;;;;15.02;7.18;;;;;;;2.62;100.00;99343.84;2606362;28;20052;-91
2022/11/26 05:41:18;;;;;;;14.13;7.32;;;;;;;2.92;100.00;99340.94;2604764;28;20045;-92
2022/11/26 05:42:33;;;;;;;26.38;11.45;;;;;;;2.88;100.00;99344.31;2605696;28;20060;-91
2022/11/26 05:43:49;;;;;;;29.35;12.70;;;;;;;3.01;100.00;99344.53;2606370;28;20238;-92
2022/11/26 05:45:05;;;;;;;17.67;8.70;;;;;;;3.15;100.00;99352.53;2606017;28;20474;-92
2022/11/26 05:46:21;;;;;;;19.30;7.22;;;;;;;3.17;100.00;99343.94;2605532;28;20052;-93
2022/11/26 05:47:37;;;;;;;20.90;7.05;;;;;;;3.23;100.00;99346.66;2606180;28;20428;-93
2022/11/26 05:48:52;;;;;;;15.45;7.95;;;;;;;3.14;100.00;99345.59;2605679;28;20052;-92
2022/11/26 05:50:08;;;;;;;19.42;9.13;;;;;;;3.26;100.00;99350.97;2605882;28;20063;-91
2022/11/26 05:51:24;;;;;;;27.52;11.13;;;;;;;2.82;100.00;99355.41;2606352;28;20156;-92
2022/11/26 05:52:39;;;;;;;19.55;10.55;;;;;;;2.95;100.00;99351.34;2606445;28;20048;-90
2022/11/26 05:53:55;;;;;;;25.23;9.00;;;;;;;2.82;100.00;99357.16;2606378;28;20140;-91
2022/11/26 05:55:10;;;;;;;23.85;8.65;;;;;;;2.83;100.00;99354.56;2606005;28;20055;-92
2022/11/26 05:56:26;;;;;;;14.82;7.95;;;;;;;3.13;100.00;99356.78;2605415;28;20789;-91
2022/11/26 05:57:42;;;;;;;19.45;8.95;;;;;;;3.15;100.00;99361.16;2606078;28;20415;-91
2022/11/26 05:58:57;;;;;;;15.40;8.13;;;;;;;3.21;100.00;99353.53;2605447;28;20048;-91
2022/11/26 06:00:14;;;;;;;15.45;7.60;;;;;;;3.18;100.00;99360.34;2606155;28;20396;-92
2022/11/26 06:01:29;;;;;;;25.15;8.30;;;;;;;3.03;100.00;99366.13;2606487;28;20136;-92